sensor_id;sensor_type;location;lat;lon;timestamp;pressure;altitude;pressure_sealevel;temperature;humidity
15477;BME280;7840;42.702;23.296;2022-12-11T00:01:30;92958.31;;;10.62;100.00
15477;BME280;7840;42.702;23.296;2022-12-11T00:03:58;92960.56;;;10.55;100.00
15477;BME280;7840;42.702;23.296;2022-12-11T00:06:25;92973.00;;;10.68;100.00
15477;BME280;7840;42.702;23.296;2022-12-11T00:08:54;92964.66;;;10.75;100.00
15477;BME280;7840;42.702;23.296;2022-12-11T00:11:25;92949.31;;;10.85;100.00
15477;BME280;7840;42.702;23.296;2022-12-11T00:13:55;92947.38;;;10.77;100.00
15477;BME280;7840;42.702;23.296;2022-12-11T00:16:23;92926.22;;;10.63;100.00
15477;BME280;7840;42.702;23.296;2022-12-11T00:18:51;92980.56;;;10.61;100.00
15477;BME280;7840;42.702;23.296;2022-12-11T00:21:22;92942.03;;;10.55;100.00
15477;BME280;7840;42.702;23.296;2022-12-11T00:23:52;92973.34;;;10.11;100.00
15477;BME280;7840;42.702;23.296;2022-12-11T00:26:20;92951.50;;;10.06;100.00
15477;BME280;7840;42.702;23.296;2022-12-11T00:28:52;92958.97;;;10.04;100.00
15477;BME280;7840;42.702;23.296;2022-12-11T00:31:22;92971.00;;;10.10;100.00
15477;BME280;7840;42.702;23.296;2022-12-11T00:33:50;92957.09;;;10.18;100.00
15477;BME280;7840;42.702;23.296;2022-12-11T00:36:20;92935.44;;;10.16;100.00
15477;BME280;7840;42.702;23.296;2022-12-11T00:38:48;92944.56;;;10.24;100.00
15477;BME280;7840;42.702;23.296;2022-12-11T00:41:16;92929.75;;;10.36;100.00
15477;BME280;7840;42.702;23.296;2022-12-11T00:43:44;92889.25;;;10.36;100.00
15477;BME280;7840;42.702;23.296;2022-12-11T00:46:13;92910.38;;;10.50;100.00
15477;BME280;7840;42.702;23.296;2022-12-11T00:48:42;92953.34;;;10.47;100.00
15477;BME280;7840;42.702;23.296;2022-12-11T00:51:11;92937.66;;;10.50;100.00
15477;BME280;7840;42.702;23.296;2022-12-11T00:53:39;92943.63;;;10.56;100.00
15477;BME280;7840;42.702;23.296;2022-12-11T00:56:11;92958.19;;;10.67;100.00
15477;BME280;7840;42.702;23.296;2022-12-11T00:58:41;92908.97;;;10.66;100.00
15477;BME280;7840;42.702;23.296;2022-12-11T01:01:10;92931.72;;;10.67;100.00
15477;BME280;7840;42.702;23.296;2022-12-11T01:03:41;92928.81;;;10.55;100.00
15477;BME280;7840;42.702;23.296;2022-12-11T01:06:13;92926.53;;;10.62;100.00
15477;BME280;7840;42.702;23.296;2022-12-11T01:08:42;92928.31;;;10.66;100.00
15477;BME280;7840;42.702;23.296;2022-12-11T01:11:12;92948.59;;;10.71;100.00
15477;BME280;7840;42.702;23.296;2022-12-11T01:13:39;92953.31;;;10.60;100.00
15477;BME280;7840;42.702;23.296;2022-12-11T01:16:10;92975.06;;;10.71;100.00
15477;BME280;7840;42.702;23.296;2022-12-11T01:18:38;92949.41;;;10.58;100.00
15477;BME280;7840;42.702;23.296;2022-12-11T01:21:09;92933.28;;;10.68;100.00
15477;BME280;7840;42.702;23.296;2022-12-11T01:23:37;92962.47;;;10.77;100.00
15477;BME280;7840;42.702;23.296;2022-12-11T01:26:07;92988.19;;;10.76;100.00
15477;BME280;7840;42.702;23.296;2022-12-11T01:28:36;92939.06;;;10.70;100.00
15477;BME280;7840;42.702;23.296;2022-12-11T01:31:07;92946.91;;;10.75;100.00
15477;BME280;7840;42.702;23.296;2022-12-11T01:33:35;92898.16;;;10.76;100.00
15477;BME280;7840;42.702;23.296;2022-12-11T01:36:08;92904.38;;;10.72;100.00
15477;BME280;7840;42.702;23.296;2022-12-11T01:38:36;92915.22;;;10.70;100.00
15477;BME280;7840;42.702;23.296;2022-12-11T01:41:04;92929.56;;;10.69;100.00
15477;BME280;7840;42.702;23.296;2022-12-11T01:43:31;92919.56;;;10.66;100.00
15477;BME280;7840;42.702;23.296;2022-12-11T01:45:59;92920.19;;;10.49;100.00
15477;BME280;7840;42.702;23.296;2022-12-11T01:48:29;92903.53;;;10.49;100.00
15477;BME280;7840;42.702;23.296;2022-12-11T01:51:00;92902.59;;;10.45;100.00
15477;BME280;7840;42.702;23.296;2022-12-11T01:53:34;92905.50;;;11.02;100.00
15477;BME280;7840;42.702;23.296;2022-12-11T01:56:04;92891.22;;;11.11;100.00
15477;BME280;7840;42.702;23.296;2022-12-11T01:58:42;92853.78;;;11.04;100.00
15477;BME280;7840;42.702;23.296;2022-12-11T02:01:13;92926.56;;;11.07;100.00
15477;BME280;7840;42.702;23.296;2022-12-11T02:03:43;92922.56;;;11.71;100.00
15477;BME280;7840;42.702;23.296;2022-12-11T02:06:29;92928.47;;;11.99;100.00
15477;BME280;7840;42.702;23.296;2022-12-11T02:08:59;92944.38;;;11.99;100.00
15477;BME280;7840;42.702;23.296;2022-12-11T02:11:33;92933.16;;;12.02;100.00
15477;BME280;7840;42.702;23.296;2022-12-11T02:14:08;92911.81;;;12.16;100.00
15477;BME280;7840;42.702;23.296;2022-12-11T02:16:45;92913.56;;;12.38;100.00
15477;BME280;7840;42.702;23.296;2022-12-11T02:19:23;92922.31;;;12.47;100.00
15477;BME280;7840;42.702;23.296;2022-12-11T02:21:59;92893.59;;;12.49;100.00
15477;BME280;7840;42.702;23.296;2022-12-11T02:24:46;92901.56;;;12.67;100.00
15477;BME280;7840;42.702;23.296;2022-12-11T02:27:34;92899.22;;;12.74;100.00
15477;BME280;7840;42.702;23.296;2022-12-11T02:30:06;92893.00;;;12.70;100.00
15477;BME280;7840;42.702;23.296;2022-12-11T02:32:38;92886.88;;;12.60;100.00
15477;BME280;7840;42.702;23.296;2022-12-11T02:35:12;92888.13;;;12.72;100.00
15477;BME280;7840;42.702;23.296;2022-12-11T02:37:45;92890.16;;;12.75;100.00
15477;BME280;7840;42.702;23.296;2022-12-11T02:40:18;92888.91;;;12.81;100.00
15477;BME280;7840;42.702;23.296;2022-12-11T02:42:59;92901.09;;;12.82;100.00
15477;BME280;7840;42.702;23.296;2022-12-11T02:45:30;92895.00;;;12.73;100.00
15477;BME280;7840;42.702;23.296;2022-12-11T02:48:04;92919.38;;;12.75;100.00
15477;BME280;7840;42.702;23.296;2022-12-11T02:50:35;92906.72;;;12.72;100.00
15477;BME280;7840;42.702;23.296;2022-12-11T02:53:11;92905.78;;;12.68;100.00
15477;BME280;7840;42.702;23.296;2022-12-11T02:55:40;92910.31;;;12.76;100.00
15477;BME280;7840;42.702;23.296;2022-12-11T02:58:13;92927.34;;;12.75;100.00
15477;BME280;7840;42.702;23.296;2022-12-11T03:00:46;92917.31;;;12.54;100.00
15477;BME280;7840;42.702;23.296;2022-12-11T03:03:14;92905.16;;;12.53;100.00
15477;BME280;7840;42.702;23.296;2022-12-11T03:05:42;92906.59;;;12.77;100.00
15477;BME280;7840;42.702;23.296;2022-12-11T03:08:11;92908.59;;;13.32;100.00
15477;BME280;7840;42.702;23.296;2022-12-11T03:10:43;92892.63;;;13.23;100.00
15477;BME280;7840;42.702;23.296;2022-12-11T03:13:12;92882.34;;;13.04;100.00
15477;BME280;7840;42.702;23.296;2022-12-11T03:15:49;92894.69;;;13.00;100.00
15477;BME280;7840;42.702;23.296;2022-12-11T03:18:25;92892.03;;;13.00;100.00
15477;BME280;7840;42.702;23.296;2022-12-11T03:21:04;92902.47;;;12.97;100.00
15477;BME280;7840;42.702;23.296;2022-12-11T03:23:36;92889.06;;;12.93;100.00
15477;BME280;7840;42.702;23.296;2022-12-11T03:26:09;92887.34;;;12.97;100.00
15477;BME280;7840;42.702;23.296;2022-12-11T03:28:44;92887.00;;;12.90;100.00
15477;BME280;7840;42.702;23.296;2022-12-11T03:31:21;92894.69;;;13.00;100.00
15477;BME280;7840;42.702;23.296;2022-12-11T03:33:52;92896.69;;;13.03;100.00
15477;BME280;7840;42.702;23.296;2022-12-11T03:36:23;92900.31;;;12.99;100.00
15477;BME280;7840;42.702;23.296;2022-12-11T03:38:55;92895.78;;;12.99;100.00
15477;BME280;7840;42.702;23.296;2022-12-11T03:41:25;92917.78;;;13.17;100.00
15477;BME280;7840;42.702;23.296;2022-12-11T03:43:57;92926.56;;;13.35;100.00
15477;BME280;7840;42.702;23.296;2022-12-11T03:46:33;92929.50;;;13.42;100.00
15477;BME280;7840;42.702;23.296;2022-12-11T03:49:08;92945.63;;;13.46;100.00
15477;BME280;7840;42.702;23.296;2022-12-11T03:51:37;92947.66;;;13.49;100.00
15477;BME280;7840;42.702;23.296;2022-12-11T03:54:07;92937.28;;;13.64;100.00
15477;BME280;7840;42.702;23.296;2022-12-11T03:56:38;92949.31;;;13.71;100.00
15477;BME280;7840;42.702;23.296;2022-12-11T03:59:07;92948.69;;;13.74;100.00
15477;BME280;7840;42.702;23.296;2022-12-11T04:01:36;92964.25;;;14.01;100.00
15477;BME280;7840;42.702;23.296;2022-12-11T04:04:04;92977.19;;;14.11;100.00
15477;BME280;7840;42.702;23.296;2022-12-11T04:06:31;92979.25;;;14.14;100.00
15477;BME280;7840;42.702;23.296;2022-12-11T04:08:59;92993.34;;;14.06;100.00
15477;BME280;7840;42.702;23.296;2022-12-11T04:11:26;92995.56;;;14.04;100.00
15477;BME280;7840;42.702;23.296;2022-12-11T04:14:06;92993.06;;;13.99;100.00
15477;BME280;7840;42.702;23.296;2022-12-11T04:16:53;93002.91;;;13.99;100.00
15477;BME280;7840;42.702;23.296;2022-12-11T04:19:22;93008.28;;;13.90;100.00
15477;BME280;7840;42.702;23.296;2022-12-11T04:22:08;93015.75;;;14.05;100.00
15477;BME280;7840;42.702;23.296;2022-12-11T04:24:53;93027.50;;;14.51;100.00
15477;BME280;7840;42.702;23.296;2022-12-11T04:27:20;93027.88;;;14.70;100.00
15477;BME280;7840;42.702;23.296;2022-12-11T04:30:08;93033.75;;;14.85;100.00
15477;BME280;7840;42.702;23.296;2022-12-11T04:32:37;93026.41;;;14.82;100.00
15477;BME280;7840;42.702;23.296;2022-12-11T04:35:06;93037.78;;;14.61;100.00
15477;BME280;7840;42.702;23.296;2022-12-11T04:37:34;93047.16;;;14.67;100.00
15477;BME280;7840;42.702;23.296;2022-12-11T04:40:02;93039.94;;;14.76;100.00
15477;BME280;7840;42.702;23.296;2022-12-11T04:42:30;93041.50;;;14.77;100.00
15477;BME280;7840;42.702;23.296;2022-12-11T04:44:58;93047.81;;;14.64;100.00
15477;BME280;7840;42.702;23.296;2022-12-11T04:47:25;93065.19;;;14.70;100.00
15477;BME280;7840;42.702;23.296;2022-12-11T04:49:55;93074.56;;;15.06;100.00
15477;BME280;7840;42.702;23.296;2022-12-11T04:52:23;93065.72;;;15.14;98.29
15477;BME280;7840;42.702;23.296;2022-12-11T04:55:02;93052.28;;;15.31;91.73
15477;BME280;7840;42.702;23.296;2022-12-11T04:57:30;93068.06;;;15.37;88.19
15477;BME280;7840;42.702;23.296;2022-12-11T04:59:58;93042.59;;;15.48;84.84
15477;BME280;7840;42.702;23.296;2022-12-11T05:02:32;93025.66;;;15.44;84.88
15477;BME280;7840;42.702;23.296;2022-12-11T05:05:02;93057.94;;;15.51;83.96
15477;BME280;7840;42.702;23.296;2022-12-11T05:07:32;93072.78;;;15.40;85.45
15477;BME280;7840;42.702;23.296;2022-12-11T05:10:13;93036.06;;;15.37;82.71
15477;BME280;7840;42.702;23.296;2022-12-11T05:12:42;93057.66;;;15.44;82.91
15477;BME280;7840;42.702;23.296;2022-12-11T05:15:10;93022.78;;;15.49;82.42
15477;BME280;7840;42.702;23.296;2022-12-11T05:17:38;93026.50;;;15.36;84.40
15477;BME280;7840;42.702;23.296;2022-12-11T05:20:08;93038.28;;;15.35;87.64
15477;BME280;7840;42.702;23.296;2022-12-11T05:22:36;93054.47;;;15.29;91.23
15477;BME280;7840;42.702;23.296;2022-12-11T05:25:05;93038.03;;;15.27;92.44
15477;BME280;7840;42.702;23.296;2022-12-11T05:27:33;93056.63;;;15.15;94.93
15477;BME280;7840;42.702;23.296;2022-12-11T05:30:00;93036.53;;;15.39;85.13
15477;BME280;7840;42.702;23.296;2022-12-11T05:32:28;93039.72;;;15.32;90.05
15477;BME280;7840;42.702;23.296;2022-12-11T05:34:56;93027.34;;;15.27;89.00
15477;BME280;7840;42.702;23.296;2022-12-11T05:37:25;93045.31;;;15.18;91.25
15477;BME280;7840;42.702;23.296;2022-12-11T05:39:54;93047.66;;;15.20;88.29
15477;BME280;7840;42.702;23.296;2022-12-11T05:42:22;93052.91;;;15.28;87.92
15477;BME280;7840;42.702;23.296;2022-12-11T05:44:52;93056.38;;;15.29;90.07
15477;BME280;7840;42.702;23.296;2022-12-11T05:47:19;93053.09;;;15.23;94.83
15477;BME280;7840;42.702;23.296;2022-12-11T05:49:50;93056.25;;;15.25;95.90
15477;BME280;7840;42.702;23.296;2022-12-11T05:52:21;93044.03;;;15.24;96.08
15477;BME280;7840;42.702;23.296;2022-12-11T05:54:53;93030.72;;;15.16;100.00
15477;BME280;7840;42.702;23.296;2022-12-11T05:57:21;93030.22;;;15.22;95.52
15477;BME280;7840;42.702;23.296;2022-12-11T05:59:48;93041.34;;;15.24;89.42
15477;BME280;7840;42.702;23.296;2022-12-11T06:02:16;93033.09;;;15.38;86.23
15477;BME280;7840;42.702;23.296;2022-12-11T06:04:44;93039.84;;;15.36;92.05
15477;BME280;7840;42.702;23.296;2022-12-11T06:07:12;93018.75;;;15.01;100.00
15477;BME280;7840;42.702;23.296;2022-12-11T06:09:40;93027.00;;;14.87;100.00
15477;BME280;7840;42.702;23.296;2022-12-11T06:12:10;93009.28;;;14.62;100.00
15477;BME280;7840;42.702;23.296;2022-12-11T06:14:37;93018.88;;;14.54;100.00
15477;BME280;7840;42.702;23.296;2022-12-11T06:17:20;93037.88;;;14.73;100.00
15477;BME280;7840;42.702;23.296;2022-12-11T06:19:48;93022.84;;;14.77;100.00
15477;BME280;7840;42.702;23.296;2022-12-11T06:22:16;93042.56;;;15.06;100.00
15477;BME280;7840;42.702;23.296;2022-12-11T06:24:43;93056.19;;;14.84;100.00
15477;BME280;7840;42.702;23.296;2022-12-11T06:27:12;93040.84;;;14.81;100.00
15477;BME280;7840;42.702;23.296;2022-12-11T06:29:40;93056.44;;;14.61;100.00
15477;BME280;7840;42.702;23.296;2022-12-11T06:32:07;93047.09;;;14.85;99.83
15477;BME280;7840;42.702;23.296;2022-12-11T06:34:35;93047.88;;;14.85;100.00
15477;BME280;7840;42.702;23.296;2022-12-11T06:37:03;93032.13;;;14.71;100.00
15477;BME280;7840;42.702;23.296;2022-12-11T06:39:30;93062.94;;;15.11;96.37
15477;BME280;7840;42.702;23.296;2022-12-11T06:41:58;93048.00;;;15.18;95.97
15477;BME280;7840;42.702;23.296;2022-12-11T06:44:27;93050.66;;;15.18;100.00
15477;BME280;7840;42.702;23.296;2022-12-11T06:46:54;93067.09;;;15.20;98.90
15477;BME280;7840;42.702;23.296;2022-12-11T06:49:22;93078.75;;;15.37;88.87
15477;BME280;7840;42.702;23.296;2022-12-11T06:51:49;93070.97;;;15.31;89.14
15477;BME280;7840;42.702;23.296;2022-12-11T06:54:17;93059.03;;;15.50;83.92
15477;BME280;7840;42.702;23.296;2022-12-11T06:56:44;93060.94;;;15.70;82.24
15477;BME280;7840;42.702;23.296;2022-12-11T06:59:12;93048.72;;;15.69;84.03
15477;BME280;7840;42.702;23.296;2022-12-11T07:01:41;93058.34;;;15.62;89.61
15477;BME280;7840;42.702;23.296;2022-12-11T07:04:09;93042.19;;;15.58;88.65
15477;BME280;7840;42.702;23.296;2022-12-11T07:06:36;93060.94;;;15.70;86.61
15477;BME280;7840;42.702;23.296;2022-12-11T07:09:05;93061.06;;;15.74;85.23
15477;BME280;7840;42.702;23.296;2022-12-11T07:11:32;93084.38;;;15.85;81.08
15477;BME280;7840;42.702;23.296;2022-12-11T07:14:00;93083.03;;;15.92;80.72
15477;BME280;7840;42.702;23.296;2022-12-11T07:16:28;93078.47;;;15.80;83.04
15477;BME280;7840;42.702;23.296;2022-12-11T07:19:00;93080.59;;;15.86;83.13
15477;BME280;7840;42.702;23.296;2022-12-11T07:21:28;93094.81;;;15.78;84.83
15477;BME280;7840;42.702;23.296;2022-12-11T07:23:57;93097.94;;;15.80;89.79
15477;BME280;7840;42.702;23.296;2022-12-11T07:26:25;93084.22;;;15.61;93.01
15477;BME280;7840;42.702;23.296;2022-12-11T07:28:55;93096.59;;;15.45;97.75
15477;BME280;7840;42.702;23.296;2022-12-11T07:31:24;93096.19;;;15.34;100.00
15477;BME280;7840;42.702;23.296;2022-12-11T07:33:53;93103.94;;;15.48;93.27
15477;BME280;7840;42.702;23.296;2022-12-11T07:36:23;93106.88;;;15.55;98.92
15477;BME280;7840;42.702;23.296;2022-12-11T07:38:52;93101.94;;;15.24;100.00
15477;BME280;7840;42.702;23.296;2022-12-11T07:41:22;93114.44;;;15.23;100.00
15477;BME280;7840;42.702;23.296;2022-12-11T07:43:50;93111.34;;;15.21;100.00
15477;BME280;7840;42.702;23.296;2022-12-11T07:46:22;93109.94;;;15.15;100.00
15477;BME280;7840;42.702;23.296;2022-12-11T07:48:50;93106.94;;;15.25;100.00
15477;BME280;7840;42.702;23.296;2022-12-11T07:51:19;93115.34;;;15.57;90.02
15477;BME280;7840;42.702;23.296;2022-12-11T07:53:49;93109.75;;;15.71;85.13
15477;BME280;7840;42.702;23.296;2022-12-11T07:56:17;93123.75;;;15.89;83.52
15477;BME280;7840;42.702;23.296;2022-12-11T07:58:46;93131.34;;;15.99;89.66
15477;BME280;7840;42.702;23.296;2022-12-11T08:01:16;93127.72;;;16.03;81.38
15477;BME280;7840;42.702;23.296;2022-12-11T08:03:44;93130.31;;;16.12;82.04
15477;BME280;7840;42.702;23.296;2022-12-11T08:06:12;93138.66;;;16.10;85.71
15477;BME280;7840;42.702;23.296;2022-12-11T08:08:40;93123.56;;;15.94;84.46
15477;BME280;7840;42.702;23.296;2022-12-11T08:11:12;93125.88;;;16.16;78.66
15477;BME280;7840;42.702;23.296;2022-12-11T08:13:42;93124.31;;;16.15;80.42
15477;BME280;7840;42.702;23.296;2022-12-11T08:16:23;93108.94;;;16.12;84.14
15477;BME280;7840;42.702;23.296;2022-12-11T08:18:57;93121.44;;;16.20;72.39
15477;BME280;7840;42.702;23.296;2022-12-11T08:21:34;93125.97;;;16.40;80.29
15477;BME280;7840;42.702;23.296;2022-12-11T08:24:02;93138.84;;;16.38;81.15
15477;BME280;7840;42.702;23.296;2022-12-11T08:26:32;93142.97;;;16.03;90.14
15477;BME280;7840;42.702;23.296;2022-12-11T08:29:00;93149.22;;;16.07;82.25
15477;BME280;7840;42.702;23.296;2022-12-11T08:31:28;93137.69;;;16.15;79.36
15477;BME280;7840;42.702;23.296;2022-12-11T08:33:56;93168.63;;;16.16;79.06
15477;BME280;7840;42.702;23.296;2022-12-11T08:36:24;93144.66;;;16.07;81.44
15477;BME280;7840;42.702;23.296;2022-12-11T08:38:53;93135.94;;;15.98;84.50
15477;BME280;7840;42.702;23.296;2022-12-11T08:41:22;93132.28;;;16.03;83.29
15477;BME280;7840;42.702;23.296;2022-12-11T08:43:52;93125.25;;;15.98;88.16
15477;BME280;7840;42.702;23.296;2022-12-11T08:46:22;93143.91;;;15.86;90.83
15477;BME280;7840;42.702;23.296;2022-12-11T08:48:50;93131.13;;;15.71;100.00
15477;BME280;7840;42.702;23.296;2022-12-11T08:51:20;93123.19;;;15.62;100.00
15477;BME280;7840;42.702;23.296;2022-12-11T08:53:49;93137.72;;;15.44;100.00
15477;BME280;7840;42.702;23.296;2022-12-11T08:56:23;93137.78;;;15.05;100.00
15477;BME280;7840;42.702;23.296;2022-12-11T08:58:53;93126.34;;;14.67;100.00
15477;BME280;7840;42.702;23.296;2022-12-11T09:01:22;93119.66;;;14.52;100.00
15477;BME280;7840;42.702;23.296;2022-12-11T09:03:52;93100.84;;;14.57;100.00
15477;BME280;7840;42.702;23.296;2022-12-11T09:06:22;93087.34;;;14.62;100.00
15477;BME280;7840;42.702;23.296;2022-12-11T09:08:51;93092.69;;;14.92;100.00
15477;BME280;7840;42.702;23.296;2022-12-11T09:11:21;93091.09;;;15.20;100.00
15477;BME280;7840;42.702;23.296;2022-12-11T09:13:49;93097.31;;;15.54;100.00
15477;BME280;7840;42.702;23.296;2022-12-11T09:16:20;93103.25;;;15.80;100.00
15477;BME280;7840;42.702;23.296;2022-12-11T09:18:49;93101.53;;;15.97;100.00
15477;BME280;7840;42.702;23.296;2022-12-11T09:21:19;93097.84;;;16.22;100.00
15477;BME280;7840;42.702;23.296;2022-12-11T09:23:47;93099.47;;;16.48;97.82
15477;BME280;7840;42.702;23.296;2022-12-11T09:26:16;93084.56;;;16.59;91.66
15477;BME280;7840;42.702;23.296;2022-12-11T09:28:44;93094.84;;;16.69;86.35
15477;BME280;7840;42.702;23.296;2022-12-11T09:31:14;93100.44;;;16.76;84.71
15477;BME280;7840;42.702;23.296;2022-12-11T09:33:44;93101.53;;;16.87;81.95
15477;BME280;7840;42.702;23.296;2022-12-11T09:36:12;93088.41;;;16.82;78.92
15477;BME280;7840;42.702;23.296;2022-12-11T09:38:39;93100.47;;;16.88;79.34
15477;BME280;7840;42.702;23.296;2022-12-11T09:41:30;93084.16;;;16.69;81.90
15477;BME280;7840;42.702;23.296;2022-12-11T09:44:06;93091.69;;;16.67;82.13
15477;BME280;7840;42.702;23.296;2022-12-11T09:46:40;93109.09;;;16.61;83.70
15477;BME280;7840;42.702;23.296;2022-12-11T09:49:18;93104.63;;;16.65;81.95
15477;BME280;7840;42.702;23.296;2022-12-11T09:51:59;93095.09;;;16.76;84.28
15477;BME280;7840;42.702;23.296;2022-12-11T09:54:31;93095.16;;;16.67;88.65
15477;BME280;7840;42.702;23.296;2022-12-11T09:57:05;93094.84;;;16.69;90.59
15477;BME280;7840;42.702;23.296;2022-12-11T09:59:44;93107.13;;;16.82;89.17
15477;BME280;7840;42.702;23.296;2022-12-11T10:02:22;93081.41;;;17.02;88.61
15477;BME280;7840;42.702;23.296;2022-12-11T10:04:59;93090.63;;;17.05;86.16
15477;BME280;7840;42.702;23.296;2022-12-11T10:07:33;93091.94;;;16.74;86.70
15477;BME280;7840;42.702;23.296;2022-12-11T10:10:12;93094.97;;;16.73;88.73
15477;BME280;7840;42.702;23.296;2022-12-11T10:12:48;93088.84;;;16.84;89.89
15477;BME280;7840;42.702;23.296;2022-12-11T10:15:32;93100.19;;;16.69;90.37
15477;BME280;7840;42.702;23.296;2022-12-11T10:18:10;93090.53;;;16.77;91.71
15477;BME280;7840;42.702;23.296;2022-12-11T10:20:40;93098.44;;;16.85;85.94
15477;BME280;7840;42.702;23.296;2022-12-11T10:23:16;93102.38;;;16.55;87.32
15477;BME280;7840;42.702;23.296;2022-12-11T10:25:48;93089.34;;;16.53;85.30
15477;BME280;7840;42.702;23.296;2022-12-11T10:28:20;93088.28;;;16.21;92.67
15477;BME280;7840;42.702;23.296;2022-12-11T10:30:50;93096.63;;;15.86;100.00
15477;BME280;7840;42.702;23.296;2022-12-11T10:33:25;93115.47;;;15.60;100.00
15477;BME280;7840;42.702;23.296;2022-12-11T10:35:57;93099.81;;;15.29;100.00
15477;BME280;7840;42.702;23.296;2022-12-11T10:38:29;93095.41;;;15.33;100.00
15477;BME280;7840;42.702;23.296;2022-12-11T10:40:59;93088.84;;;15.31;100.00
15477;BME280;7840;42.702;23.296;2022-12-11T10:43:37;93084.34;;;15.44;100.00
15477;BME280;7840;42.702;23.296;2022-12-11T10:46:11;93084.06;;;15.66;100.00
15477;BME280;7840;42.702;23.296;2022-12-11T10:48:45;93078.25;;;15.64;100.00
15477;BME280;7840;42.702;23.296;2022-12-11T10:51:14;93079.25;;;15.80;100.00
15477;BME280;7840;42.702;23.296;2022-12-11T10:53:42;93068.19;;;16.03;100.00
15477;BME280;7840;42.702;23.296;2022-12-11T10:56:23;93066.38;;;16.28;100.00
15477;BME280;7840;42.702;23.296;2022-12-11T10:58:51;93054.38;;;16.46;100.00
15477;BME280;7840;42.702;23.296;2022-12-11T11:01:21;93056.28;;;16.58;97.34
15477;BME280;7840;42.702;23.296;2022-12-11T11:04:04;93048.75;;;16.84;97.70
15477;BME280;7840;42.702;23.296;2022-12-11T11:06:37;93044.94;;;16.98;90.11
15477;BME280;7840;42.702;23.296;2022-12-11T11:09:27;93068.81;;;16.90;92.02
15477;BME280;7840;42.702;23.296;2022-12-11T11:11:55;93055.72;;;16.64;96.69
15477;BME280;7840;42.702;23.296;2022-12-11T11:14:23;93053.59;;;16.46;97.97
15477;BME280;7840;42.702;23.296;2022-12-11T11:16:53;93056.66;;;16.23;100.00
15477;BME280;7840;42.702;23.296;2022-12-11T11:19:28;93045.16;;;16.10;100.00
15477;BME280;7840;42.702;23.296;2022-12-11T11:22:00;93047.25;;;15.93;100.00
15477;BME280;7840;42.702;23.296;2022-12-11T11:24:38;93048.94;;;15.76;100.00
15477;BME280;7840;42.702;23.296;2022-12-11T11:27:12;93047.00;;;15.85;100.00
15477;BME280;7840;42.702;23.296;2022-12-11T11:29:44;93049.91;;;15.93;100.00
15477;BME280;7840;42.702;23.296;2022-12-11T11:32:18;93045.22;;;15.90;100.00
15477;BME280;7840;42.702;23.296;2022-12-11T11:34:49;93033.31;;;15.87;100.00
15477;BME280;7840;42.702;23.296;2022-12-11T11:37:25;93039.69;;;15.95;100.00
15477;BME280;7840;42.702;23.296;2022-12-11T11:40:03;93032.59;;;16.11;100.00
15477;BME280;7840;42.702;23.296;2022-12-11T11:42:55;93029.03;;;16.19;100.00
15477;BME280;7840;42.702;23.296;2022-12-11T11:45:30;93043.75;;;16.25;98.94
15477;BME280;7840;42.702;23.296;2022-12-11T11:48:09;93039.97;;;16.26;100.00
15477;BME280;7840;42.702;23.296;2022-12-11T11:50:43;93033.72;;;16.10;100.00
15477;BME280;7840;42.702;23.296;2022-12-11T11:53:30;93029.59;;;16.00;100.00
15477;BME280;7840;42.702;23.296;2022-12-11T11:56:06;93017.31;;;15.87;100.00
15477;BME280;7840;42.702;23.296;2022-12-11T11:58:49;93023.81;;;15.77;100.00
15477;BME280;7840;42.702;23.296;2022-12-11T12:01:20;93031.13;;;15.68;100.00
15477;BME280;7840;42.702;23.296;2022-12-11T12:03:48;93032.25;;;15.67;100.00
15477;BME280;7840;42.702;23.296;2022-12-11T12:09:23;93019.00;;;15.50;100.00
15477;BME280;7840;42.702;23.296;2022-12-11T12:12:02;93027.94;;;14.06;100.00
15477;BME280;7840;42.702;23.296;2022-12-11T12:14:41;93040.56;;;13.62;100.00
15477;BME280;7840;42.702;23.296;2022-12-11T12:17:19;93055.25;;;13.17;100.00
15477;BME280;7840;42.702;23.296;2022-12-11T12:19:54;93039.16;;;12.47;100.00
15477;BME280;7840;42.702;23.296;2022-12-11T12:22:50;93060.03;;;11.33;100.00
15477;BME280;7840;42.702;23.296;2022-12-11T12:33:14;93072.56;;;8.73;100.00
15477;BME280;7840;42.702;23.296;2022-12-11T12:35:52;93069.66;;;8.27;100.00
15477;BME280;7840;42.702;23.296;2022-12-11T12:38:32;93071.94;;;7.86;100.00
15477;BME280;7840;42.702;23.296;2022-12-11T12:41:08;93071.03;;;7.66;100.00
15477;BME280;7840;42.702;23.296;2022-12-11T12:44:05;93090.22;;;7.43;100.00
15477;BME280;7840;42.702;23.296;2022-12-11T12:46:50;93102.66;;;7.32;100.00
15477;BME280;7840;42.702;23.296;2022-12-11T12:49:34;93073.03;;;7.17;100.00
15477;BME280;7840;42.702;23.296;2022-12-11T12:52:10;93063.09;;;7.03;100.00
15477;BME280;7840;42.702;23.296;2022-12-11T12:54:41;93056.88;;;6.89;100.00
15477;BME280;7840;42.702;23.296;2022-12-11T12:57:47;93096.94;;;6.76;100.00
15477;BME280;7840;42.702;23.296;2022-12-11T13:00:28;93094.63;;;6.64;100.00
15477;BME280;7840;42.702;23.296;2022-12-11T13:02:58;93084.47;;;6.47;100.00
15477;BME280;7840;42.702;23.296;2022-12-11T13:05:31;93083.44;;;6.38;100.00
15477;BME280;7840;42.702;23.296;2022-12-11T13:08:01;93105.56;;;6.27;100.00
15477;BME280;7840;42.702;23.296;2022-12-11T13:10:31;93094.03;;;6.18;100.00
15477;BME280;7840;42.702;23.296;2022-12-11T13:13:01;93089.31;;;6.10;100.00
15477;BME280;7840;42.702;23.296;2022-12-11T13:15:35;93110.38;;;5.99;100.00
15477;BME280;7840;42.702;23.296;2022-12-11T13:20:51;93119.31;;;5.93;100.00
15477;BME280;7840;42.702;23.296;2022-12-11T13:23:26;93119.28;;;5.83;100.00
15477;BME280;7840;42.702;23.296;2022-12-11T13:25:58;93129.81;;;5.73;100.00
15477;BME280;7840;42.702;23.296;2022-12-11T13:28:45;93147.69;;;5.71;100.00
15477;BME280;7840;42.702;23.296;2022-12-11T13:31:33;93161.84;;;5.60;100.00
15477;BME280;7840;42.702;23.296;2022-12-11T13:34:14;93150.28;;;5.56;100.00